createdAt,value
2018-09-04T00:01:39.620Z,98211.85
2018-09-04T00:04:09.019Z,98210.11
2018-09-04T00:06:38.415Z,98214.48
2018-09-04T00:09:08.135Z,98215.34
2018-09-04T00:11:37.562Z,98220.66
2018-09-04T00:14:07.493Z,98220.25
2018-09-04T00:16:36.903Z,98220.09
2018-09-04T00:19:06.426Z,98214.18
2018-09-04T00:21:35.966Z,98207.48
2018-09-04T00:24:05.645Z,98207.12
2018-09-04T00:26:35.021Z,98204.63
2018-09-04T00:29:04.444Z,98205.88
2018-09-04T00:31:34.195Z,98205.31
2018-09-04T00:34:03.581Z,98203.02
2018-09-04T00:36:34.025Z,98207.80
2018-09-04T00:39:04.147Z,98205.39
2018-09-04T00:41:33.599Z,98208.69
2018-09-04T00:44:03.098Z,98211.74
2018-09-04T00:46:32.936Z,98216.15
2018-09-04T00:49:02.329Z,98214.36
2018-09-04T00:51:32.859Z,98215.55
2018-09-04T00:54:02.793Z,98220.23
2018-09-04T00:56:32.168Z,98223.31
2018-09-04T00:59:01.637Z,98225.81
2018-09-04T01:01:30.998Z,98228.59
2018-09-04T01:04:00.377Z,98218.27
2018-09-04T01:06:29.783Z,98227.58
2018-09-04T01:08:59.246Z,98229.34
2018-09-04T01:11:28.640Z,98229.47
2018-09-04T01:13:58.034Z,98226.33
2018-09-04T01:16:28.001Z,98228.36
2018-09-04T01:18:57.938Z,98228.42
2018-09-04T01:21:27.438Z,98232.82
2018-09-04T01:23:56.809Z,98230.48
2018-09-04T01:26:26.223Z,98227.04
2018-09-04T01:28:55.826Z,98228.26
2018-09-04T01:31:25.345Z,98234.71
2018-09-04T01:33:55.417Z,98237.92
2018-09-04T01:36:24.945Z,98235.84
2018-09-04T01:38:54.516Z,98237.91
2018-09-04T01:41:23.946Z,98241.56
2018-09-04T01:43:53.424Z,98242.80
2018-09-04T01:46:22.881Z,98244.20
2018-09-04T01:48:53.178Z,98247.41
2018-09-04T01:51:23.141Z,98252.41
2018-09-04T01:53:52.587Z,98247.41
2018-09-04T01:56:22.005Z,98246.83
2018-09-04T01:58:51.971Z,98241.33
2018-09-04T02:01:21.453Z,98243.45
2018-09-04T02:03:51.011Z,98242.88
2018-09-04T02:06:20.618Z,98242.27
2018-09-04T02:08:50.216Z,98245.52
2018-09-04T02:11:19.707Z,98245.52
2018-09-04T02:13:49.144Z,98245.28
2018-09-04T02:16:18.630Z,98234.02
2018-09-04T02:18:48.526Z,98237.03
2018-09-04T02:21:18.000Z,98232.06
2018-09-04T02:23:47.441Z,98234.98
2018-09-04T02:26:16.870Z,98234.55
2018-09-04T02:28:46.288Z,98236.16
2018-09-04T02:31:15.694Z,98238.09
2018-09-04T02:33:45.123Z,98239.98
2018-09-04T02:36:14.588Z,98242.42
2018-09-04T02:38:44.197Z,98242.19
2018-09-04T02:41:14.107Z,98246.45
2018-09-04T02:43:43.507Z,98232.95
2018-09-04T02:46:12.895Z,98235.97
2018-09-04T02:48:42.285Z,98229.17
2018-09-04T02:51:12.996Z,98229.74
2018-09-04T02:53:42.428Z,98224.97
2018-09-04T02:56:11.875Z,98225.21
2018-09-04T02:58:41.402Z,98234.21
2018-09-04T03:01:10.850Z,98237.66
2018-09-04T03:03:40.257Z,98233.40
2018-09-04T03:06:10.109Z,98239.19
2018-09-04T03:08:39.522Z,98235.23
2018-09-04T03:11:09.945Z,98236.27
2018-09-04T03:13:39.569Z,98237.80
2018-09-04T03:16:09.095Z,98238.09
2018-09-04T03:18:38.500Z,98236.17
2018-09-04T03:21:07.962Z,98243.14
2018-09-04T03:23:37.556Z,98243.44
2018-09-04T03:26:07.097Z,98239.48
2018-09-04T03:28:36.510Z,98238.98
2018-09-04T03:31:06.054Z,98239.28
2018-09-04T03:33:35.438Z,98238.23
2018-09-04T03:36:04.867Z,98237.97
2018-09-04T03:38:34.271Z,98241.69
2018-09-04T03:41:03.737Z,98248.38
2018-09-04T03:43:33.681Z,98246.02
2018-09-04T03:46:03.042Z,98246.32
2018-09-04T03:48:32.536Z,98242.16
2018-09-04T03:51:01.964Z,98247.64
2018-09-04T03:53:31.541Z,98236.51
2018-09-04T03:56:00.960Z,98238.34
2018-09-04T03:58:30.344Z,98231.23
2018-09-04T04:00:59.728Z,98232.02
2018-09-04T04:03:29.142Z,98231.50
2018-09-04T04:05:58.576Z,98224.03
2018-09-04T04:08:27.979Z,98228.80
2018-09-04T04:10:57.465Z,98232.55
2018-09-04T04:13:27.510Z,98231.73
2018-09-04T04:15:56.919Z,98229.91
2018-09-04T04:18:26.345Z,98234.75
2018-09-04T04:20:58.860Z,98234.45
2018-09-04T04:23:29.096Z,98237.09
2018-09-04T04:26:00.192Z,98240.30
2018-09-04T04:28:29.652Z,98241.41
2018-09-04T04:30:59.114Z,98244.56
2018-09-04T04:33:28.544Z,98249.77
2018-09-04T04:35:57.957Z,98246.32
2018-09-04T04:38:27.359Z,98254.55
2018-09-04T04:40:56.778Z,98256.95
2018-09-04T04:43:26.177Z,98260.70
2018-09-04T04:45:55.591Z,98253.59
2018-09-04T04:48:25.071Z,98256.00
2018-09-04T04:50:55.019Z,98260.06
2018-09-04T04:53:24.427Z,98259.83
2018-09-04T04:55:53.812Z,98257.48
2018-09-04T04:58:23.202Z,98259.11
2018-09-04T05:00:52.669Z,98262.33
2018-09-04T05:03:22.109Z,98260.70
2018-09-04T05:05:51.490Z,98269.94
2018-09-04T05:08:20.857Z,98271.27
2018-09-04T05:10:50.401Z,98274.51
2018-09-04T05:13:19.875Z,98281.11
2018-09-04T05:15:49.293Z,98284.02
2018-09-04T05:18:18.831Z,98284.83
2018-09-04T05:20:48.314Z,98284.12
2018-09-04T05:23:18.467Z,98279.34
2018-09-04T05:25:47.986Z,98282.80
2018-09-04T05:28:17.441Z,98286.76
2018-09-04T05:30:46.888Z,98283.88
2018-09-04T05:33:22.223Z,98280.94
2018-09-04T05:35:53.753Z,98281.84
2018-09-04T05:38:23.236Z,98281.04
2018-09-04T05:40:52.660Z,98287.41
2018-09-04T05:43:32.740Z,98280.67
2018-09-04T05:46:05.661Z,98288.95
2018-09-04T05:48:35.118Z,98282.66
2018-09-04T05:51:04.495Z,98293.59
2018-09-04T05:53:34.000Z,98292.88
2018-09-04T05:56:03.425Z,98285.56
2018-09-04T05:58:32.870Z,98288.27
2018-09-04T06:01:03.389Z,98288.03
2018-09-04T06:03:32.817Z,98285.77
2018-09-04T06:06:02.272Z,98289.01
2018-09-04T06:08:31.677Z,98286.73
2018-09-04T06:11:01.271Z,98282.33
2018-09-04T06:13:30.772Z,98281.58
2018-09-04T06:16:00.203Z,98285.64
2018-09-04T06:18:29.670Z,98289.97
2018-09-04T06:20:59.031Z,98289.73
2018-09-04T06:23:28.407Z,98283.22
2018-09-04T06:25:57.830Z,98277.94
2018-09-04T06:28:27.313Z,98282.17
2018-09-04T06:30:56.834Z,98280.64
2018-09-04T06:33:26.198Z,98288.63
2018-09-04T06:35:55.681Z,98278.87
2018-09-04T06:38:25.083Z,98287.67
2018-09-04T06:40:54.483Z,98280.32
2018-09-04T06:43:23.877Z,98290.69
2018-09-04T06:45:53.267Z,98287.30
2018-09-04T06:48:22.671Z,98283.69
2018-09-04T06:50:52.174Z,98287.75
2018-09-04T06:53:21.580Z,98288.32
2018-09-04T06:55:51.114Z,98286.85
2018-09-04T06:58:21.067Z,98285.23
2018-09-04T07:00:50.510Z,98281.27
2018-09-04T07:03:19.925Z,98285.83
2018-09-04T07:05:49.334Z,98279.05
2018-09-04T07:08:18.897Z,98287.88
2018-09-04T07:10:48.349Z,98285.30
2018-09-04T07:13:17.804Z,98285.66
2018-09-04T07:15:47.321Z,98287.39
2018-09-04T07:18:17.289Z,98290.91
2018-09-04T07:20:46.699Z,98295.53
2018-09-04T07:23:16.198Z,98296.41
2018-09-04T07:25:45.666Z,98291.98
2018-09-04T07:28:15.098Z,98288.98
2018-09-04T07:30:45.115Z,98296.03
2018-09-04T07:33:14.657Z,98291.91
2018-09-04T07:35:44.147Z,98301.28
2018-09-04T07:38:13.612Z,98303.47
2018-09-04T07:40:43.206Z,98302.45
2018-09-04T07:43:12.711Z,98298.63
2018-09-04T07:45:42.760Z,98298.73
2018-09-04T07:48:12.180Z,98299.33
2018-09-04T07:50:41.656Z,98297.30
2018-09-04T07:53:11.041Z,98294.44
2018-09-04T07:55:40.489Z,98295.81
2018-09-04T07:58:09.898Z,98299.92
2018-09-04T08:00:39.380Z,98302.92
2018-09-04T08:03:08.906Z,98299.01
2018-09-04T08:05:38.368Z,98296.41
2018-09-04T08:08:07.768Z,98293.61
2018-09-04T08:10:37.256Z,98298.48
2018-09-04T08:13:07.651Z,98293.54
2018-09-04T08:15:37.555Z,98293.89
2018-09-04T08:18:07.042Z,98297.99
2018-09-04T08:20:36.613Z,98292.28
2018-09-04T08:23:06.051Z,98302.76
2018-09-04T08:25:35.469Z,98303.70
2018-09-04T08:28:04.975Z,98303.83
2018-09-04T08:30:34.369Z,98305.28
2018-09-04T08:33:03.883Z,98300.62
2018-09-04T08:35:33.300Z,98297.03
2018-09-04T08:38:02.733Z,98299.26
2018-09-04T08:40:33.122Z,98290.66
2018-09-04T08:43:03.136Z,98292.11
2018-09-04T08:45:33.115Z,98294.59
2018-09-04T08:48:03.627Z,98285.39
2018-09-04T08:50:34.158Z,98288.16
2018-09-04T08:53:03.508Z,98291.38
2018-09-04T08:55:32.998Z,98285.42
2018-09-04T08:58:02.455Z,98292.49
2018-09-04T09:00:31.903Z,98280.42
2018-09-04T09:03:01.330Z,98289.30
2018-09-04T09:05:30.827Z,98283.30
2018-09-04T09:08:00.693Z,98278.39
2018-09-04T09:10:30.196Z,98270.77
2018-09-04T09:12:59.598Z,98269.22
2018-09-04T09:15:29.583Z,98263.72
2018-09-04T09:17:59.929Z,98266.03
2018-09-04T09:20:29.403Z,98268.53
2018-09-04T09:22:58.796Z,98259.09
2018-09-04T09:25:28.165Z,98261.58
2018-09-04T09:27:57.625Z,98257.15
2018-09-04T09:30:28.071Z,98256.47
2018-09-04T09:32:57.963Z,98254.59
2018-09-04T09:35:27.351Z,98255.43
2018-09-04T09:37:56.687Z,98255.78
2018-09-04T09:40:26.115Z,98255.30
2018-09-04T09:42:56.125Z,98256.94
2018-09-04T09:45:25.640Z,98250.63
2018-09-04T09:47:55.083Z,98253.05
2018-09-04T09:50:24.513Z,98250.94
2018-09-04T09:52:54.005Z,98256.34
2018-09-04T09:55:23.378Z,98256.17
2018-09-04T09:57:52.931Z,98259.98
2018-09-04T10:00:27.469Z,98252.83
2018-09-04T10:03:01.957Z,98254.81
2018-09-04T10:05:31.364Z,98241.64
2018-09-04T10:08:00.923Z,98240.63
2018-09-04T10:10:30.354Z,98237.27
2018-09-04T10:12:59.700Z,98230.67
2018-09-04T10:15:29.135Z,98232.00
2018-09-04T10:17:58.558Z,98237.94
2018-09-04T10:20:28.053Z,98227.90
2018-09-04T10:22:57.546Z,98226.30
2018-09-04T10:25:26.936Z,98223.18
2018-09-04T10:27:56.364Z,98217.38
2018-09-04T10:30:26.091Z,98218.48
2018-09-04T10:32:55.520Z,98220.35
2018-09-04T10:35:24.917Z,98216.36
2018-09-04T10:37:54.317Z,98216.64
2018-09-04T10:40:28.903Z,98214.80
2018-09-04T10:42:58.294Z,98204.94
2018-09-04T10:45:32.961Z,98213.47
2018-09-04T10:48:02.358Z,98202.34
2018-09-04T10:50:31.850Z,98199.47
2018-09-04T10:53:01.781Z,98196.33
2018-09-04T10:55:31.166Z,98194.49
2018-09-04T10:58:00.582Z,98194.57
2018-09-04T11:00:29.976Z,98192.47
2018-09-04T11:02:59.426Z,98194.42
2018-09-04T11:05:28.935Z,98190.73
2018-09-04T11:07:58.351Z,98190.27
2018-09-04T11:10:27.834Z,98190.64
2018-09-04T11:12:57.754Z,98189.64
2018-09-04T11:15:27.208Z,98190.79
2018-09-04T11:17:57.349Z,98190.81
2018-09-04T11:20:26.768Z,98188.73
2018-09-04T11:22:56.136Z,98184.75
2018-09-04T11:25:25.616Z,98187.20
2018-09-04T11:27:55.168Z,98189.10
2018-09-04T11:30:24.704Z,98191.33
2018-09-04T11:32:54.127Z,98187.06
2018-09-04T11:35:23.614Z,98181.54
2018-09-04T11:37:53.026Z,98180.46
2018-09-04T11:40:22.615Z,98179.69
2018-09-04T11:42:53.378Z,98179.70
2018-09-04T11:45:22.817Z,98181.59
2018-09-04T11:47:52.383Z,98179.74
2018-09-04T11:50:21.792Z,98182.17
2018-09-04T11:52:51.260Z,98177.09
2018-09-04T11:55:20.733Z,98180.56
2018-09-04T11:57:50.780Z,98182.70
2018-09-04T12:00:26.620Z,98181.13
2018-09-04T12:02:56.101Z,98181.70
2018-09-04T12:05:25.479Z,98182.47
2018-09-04T12:07:55.008Z,98178.75
2018-09-04T12:28:55.482Z,98177.61
2018-09-04T12:49:36.926Z,98169.45
2018-09-04T13:10:16.164Z,98172.15
2018-09-04T13:30:53.279Z,98172.17
2018-09-04T13:51:31.899Z,98159.33
2018-09-04T14:12:11.164Z,98158.60
2018-09-04T14:32:48.013Z,98147.66
2018-09-04T14:53:28.508Z,98136.02
2018-09-04T15:14:03.466Z,98133.75
2018-09-04T15:34:45.116Z,98128.34
2018-09-04T15:55:27.223Z,98132.56
2018-09-04T16:16:03.411Z,98145.53
2018-09-04T16:36:54.353Z,98159.98
2018-09-04T16:57:33.045Z,98168.53
2018-09-04T17:18:15.345Z,98186.58
2018-09-04T17:38:53.687Z,98198.61
2018-09-04T17:59:31.725Z,98213.48
2018-09-04T18:20:10.995Z,98238.91
2018-09-04T18:40:47.489Z,98253.25
2018-09-04T19:01:28.604Z,98280.89
2018-09-04T19:22:03.879Z,98295.57
2018-09-04T19:42:40.065Z,98301.45
2018-09-04T20:03:16.266Z,98315.84
2018-09-04T20:23:54.606Z,98321.16
2018-09-04T20:44:33.875Z,98323.89
2018-09-04T21:05:21.516Z,98321.87
2018-09-04T21:26:00.390Z,98329.38
2018-09-04T21:46:38.736Z,98305.88
2018-09-04T22:29:04.851Z,98316.37
2018-09-04T22:49:47.194Z,98327.51
2018-09-04T23:10:25.540Z,98324.51
2018-09-04T23:31:04.801Z,98322.75
2018-09-04T23:51:43.145Z,98318.17
